sensor_id;sensor_type;location;lat;lon;timestamp;pressure;altitude;pressure_sealevel;temperature;humidity
33845;BME280;20145;43.118;25.694;2023-02-18T00:01:15;100095.06;;;9.04;48.91
33845;BME280;20145;43.118;25.694;2023-02-18T00:03:41;100094.22;;;9.09;48.77
33845;BME280;20145;43.118;25.694;2023-02-18T00:06:11;100089.91;;;9.11;48.52
33845;BME280;20145;43.118;25.694;2023-02-18T00:08:38;100094.22;;;9.06;49.25
33845;BME280;20145;43.118;25.694;2023-02-18T00:11:07;100084.75;;;9.08;48.88
33845;BME280;20145;43.118;25.694;2023-02-18T00:13:32;100082.19;;;9.07;48.62
33845;BME280;20145;43.118;25.694;2023-02-18T00:16:06;100085.63;;;9.07;48.75
33845;BME280;20145;43.118;25.694;2023-02-18T00:18:32;100077.00;;;9.02;48.45
33845;BME280;20145;43.118;25.694;2023-02-18T00:20:58;100069.28;;;8.96;49.21
33845;BME280;20145;43.118;25.694;2023-02-18T00:23:24;100071.84;;;8.93;49.12
33845;BME280;20145;43.118;25.694;2023-02-18T00:25:58;100065.84;;;9.00;49.32
33845;BME280;20145;43.118;25.694;2023-02-18T00:28:24;100077.81;;;8.95;49.16
33845;BME280;20145;43.118;25.694;2023-02-18T00:30:49;100069.25;;;8.94;49.36
33845;BME280;20145;43.118;25.694;2023-02-18T00:33:15;100065.00;;;9.00;49.36
33845;BME280;20145;43.118;25.694;2023-02-18T00:35:40;100060.72;;;8.99;49.11
33845;BME280;20145;43.118;25.694;2023-02-18T00:38:06;100062.44;;;8.98;49.35
33845;BME280;20145;43.118;25.694;2023-02-18T00:40:38;100048.59;;;8.84;49.66
33845;BME280;20145;43.118;25.694;2023-02-18T00:43:04;100061.50;;;8.87;49.67
33845;BME280;20145;43.118;25.694;2023-02-18T00:45:29;100049.44;;;8.77;50.12
33845;BME280;20145;43.118;25.694;2023-02-18T00:47:55;100049.38;;;8.66;50.53
33845;BME280;20145;43.118;25.694;2023-02-18T00:50:21;100056.25;;;8.70;50.93
33845;BME280;20145;43.118;25.694;2023-02-18T00:52:46;100052.78;;;8.63;51.26
33845;BME280;20145;43.118;25.694;2023-02-18T00:55:12;100041.56;;;8.52;51.27
33845;BME280;20145;43.118;25.694;2023-02-18T00:57:37;100050.13;;;8.49;50.81
33845;BME280;20145;43.118;25.694;2023-02-18T01:00:04;100043.22;;;8.44;51.53
33845;BME280;20145;43.118;25.694;2023-02-18T01:02:30;100028.56;;;8.37;52.04
33845;BME280;20145;43.118;25.694;2023-02-18T01:04:56;100029.50;;;8.40;51.54
33845;BME280;20145;43.118;25.694;2023-02-18T01:07:22;100029.50;;;8.40;52.19
33845;BME280;20145;43.118;25.694;2023-02-18T01:09:47;100019.13;;;8.36;52.88
33845;BME280;20145;43.118;25.694;2023-02-18T01:12:13;100014.81;;;8.30;52.10
33845;BME280;20145;43.118;25.694;2023-02-18T01:14:38;100013.97;;;8.31;52.17
33845;BME280;20145;43.118;25.694;2023-02-18T01:17:04;100002.81;;;8.31;51.74
33845;BME280;20145;43.118;25.694;2023-02-18T01:19:29;99995.09;;;8.31;51.65
33845;BME280;20145;43.118;25.694;2023-02-18T01:21:55;99994.22;;;8.25;52.11
33845;BME280;20145;43.118;25.694;2023-02-18T01:24:21;99996.78;;;8.25;51.46
33845;BME280;20145;43.118;25.694;2023-02-18T01:26:46;99983.06;;;8.22;51.67
33845;BME280;20145;43.118;25.694;2023-02-18T01:29:12;99986.56;;;8.33;51.67
33845;BME280;20145;43.118;25.694;2023-02-18T01:31:37;99992.56;;;8.35;51.15
33845;BME280;20145;43.118;25.694;2023-02-18T01:34:03;99977.25;;;8.43;51.70
33845;BME280;20145;43.118;25.694;2023-02-18T01:36:28;99979.81;;;8.46;50.54
33845;BME280;20145;43.118;25.694;2023-02-18T01:38:54;99975.53;;;8.46;50.08
33845;BME280;20145;43.118;25.694;2023-02-18T01:41:19;99982.47;;;8.57;50.61
33845;BME280;20145;43.118;25.694;2023-02-18T01:43:45;99983.31;;;8.60;49.86
33845;BME280;20145;43.118;25.694;2023-02-18T01:46:21;99984.19;;;8.59;50.38
33845;BME280;20145;43.118;25.694;2023-02-18T01:48:54;99983.31;;;8.57;49.84
33845;BME280;20145;43.118;25.694;2023-02-18T01:51:33;99970.50;;;8.62;49.66
33845;BME280;20145;43.118;25.694;2023-02-18T01:56:46;99975.72;;;8.83;49.21
33845;BME280;20145;43.118;25.694;2023-02-18T01:59:16;99976.59;;;8.90;49.37
33845;BME280;20145;43.118;25.694;2023-02-18T02:01:45;99975.75;;;8.92;49.39
33845;BME280;20145;43.118;25.694;2023-02-18T02:04:11;99980.91;;;8.92;48.75
33845;BME280;20145;43.118;25.694;2023-02-18T02:06:37;99972.31;;;8.93;49.19
33845;BME280;20145;43.118;25.694;2023-02-18T02:09:04;99959.38;;;8.78;48.90
33845;BME280;20145;43.118;25.694;2023-02-18T02:25:03;99970.56;;;8.80;49.81
33845;BME280;20145;43.118;25.694;2023-02-18T02:35:46;99949.22;;;9.12;47.71
33845;BME280;20145;43.118;25.694;2023-02-18T02:38:18;99950.94;;;9.16;47.24
33845;BME280;20145;43.118;25.694;2023-02-18T02:40:56;99943.19;;;9.08;47.74
33845;BME280;20145;43.118;25.694;2023-02-18T02:44:00;99951.78;;;9.16;47.72
33845;BME280;20145;43.118;25.694;2023-02-18T02:46:38;99957.81;;;9.15;47.51
33845;BME280;20145;43.118;25.694;2023-02-18T02:54:25;99957.78;;;9.08;47.88
33845;BME280;20145;43.118;25.694;2023-02-18T02:57:40;99959.50;;;9.04;47.88
33845;BME280;20145;43.118;25.694;2023-02-18T02:59:59;99962.88;;;8.88;49.44
33845;BME280;20145;43.118;25.694;2023-02-18T03:06:16;99931.13;;;8.89;47.78
33845;BME280;20145;43.118;25.694;2023-02-18T03:11:47;99953.50;;;9.07;48.23
33845;BME280;20145;43.118;25.694;2023-02-18T03:14:30;99946.63;;;9.13;47.13
33845;BME280;20145;43.118;25.694;2023-02-18T03:17:04;99939.78;;;9.11;47.62
33845;BME280;20145;43.118;25.694;2023-02-18T03:19:39;99948.38;;;9.14;47.52
33845;BME280;20145;43.118;25.694;2023-02-18T03:22:19;99931.22;;;9.21;46.36
33845;BME280;20145;43.118;25.694;2023-02-18T03:24:49;99940.69;;;9.33;46.51
33845;BME280;20145;43.118;25.694;2023-02-18T03:27:31;99937.25;;;9.40;46.20
33845;BME280;20145;43.118;25.694;2023-02-18T03:30:06;99941.56;;;9.49;46.68
33845;BME280;20145;43.118;25.694;2023-02-18T03:32:34;99943.28;;;9.62;45.92
33845;BME280;20145;43.118;25.694;2023-02-18T03:35:07;99951.03;;;9.68;44.75
33845;BME280;20145;43.118;25.694;2023-02-18T03:37:37;99953.59;;;9.88;45.10
33845;BME280;20145;43.118;25.694;2023-02-18T03:40:05;99958.75;;;9.99;43.85
33845;BME280;20145;43.118;25.694;2023-02-18T03:42:32;99959.56;;;10.09;43.92
33845;BME280;20145;43.118;25.694;2023-02-18T03:44:57;99966.44;;;10.11;44.59
33845;BME280;20145;43.118;25.694;2023-02-18T03:47:23;99955.28;;;10.11;44.21
33845;BME280;20145;43.118;25.694;2023-02-18T03:49:49;99960.44;;;10.11;43.63
33845;BME280;20145;43.118;25.694;2023-02-18T03:52:15;99950.13;;;10.27;44.11
33845;BME280;20145;43.118;25.694;2023-02-18T03:54:41;99953.56;;;10.28;43.16
33845;BME280;20145;43.118;25.694;2023-02-18T03:57:07;99944.09;;;10.33;44.06
33845;BME280;20145;43.118;25.694;2023-02-18T03:59:32;99946.72;;;10.29;43.94
33845;BME280;20145;43.118;25.694;2023-02-18T04:01:58;99944.09;;;10.30;44.10
33845;BME280;20145;43.118;25.694;2023-02-18T04:04:23;99948.41;;;10.30;43.72
33845;BME280;20145;43.118;25.694;2023-02-18T04:06:49;99939.81;;;10.35;43.05
33845;BME280;20145;43.118;25.694;2023-02-18T04:09:14;99941.50;;;10.22;44.07
33845;BME280;20145;43.118;25.694;2023-02-18T04:11:40;99943.25;;;10.16;44.26
33845;BME280;20145;43.118;25.694;2023-02-18T04:14:06;99931.22;;;10.21;44.37
33845;BME280;20145;43.118;25.694;2023-02-18T04:16:32;99932.09;;;10.12;44.51
33845;BME280;20145;43.118;25.694;2023-02-18T04:18:58;99912.34;;;9.93;44.09
33845;BME280;20145;43.118;25.694;2023-02-18T04:21:24;99920.94;;;9.98;44.78
33845;BME280;20145;43.118;25.694;2023-02-18T04:23:50;99923.50;;;10.02;44.98
33845;BME280;20145;43.118;25.694;2023-02-18T04:26:15;99928.66;;;10.02;44.36
33845;BME280;20145;43.118;25.694;2023-02-18T04:28:41;99932.09;;;9.98;44.29
33845;BME280;20145;43.118;25.694;2023-02-18T04:31:06;99929.53;;;9.92;44.10
33845;BME280;20145;43.118;25.694;2023-02-18T04:33:32;99927.81;;;9.90;44.29
33845;BME280;20145;43.118;25.694;2023-02-18T04:35:57;99932.97;;;9.94;44.87
33845;BME280;20145;43.118;25.694;2023-02-18T04:38:25;99925.25;;;9.93;45.04
33845;BME280;20145;43.118;25.694;2023-02-18T04:40:50;99915.78;;;9.82;44.85
33845;BME280;20145;43.118;25.694;2023-02-18T04:43:16;99912.34;;;9.94;44.48
33845;BME280;20145;43.118;25.694;2023-02-18T04:45:41;99908.03;;;10.10;44.06
33845;BME280;20145;43.118;25.694;2023-02-18T04:48:07;99900.31;;;10.04;44.68
33845;BME280;20145;43.118;25.694;2023-02-18T04:50:33;99892.56;;;9.95;44.41
33845;BME280;20145;43.118;25.694;2023-02-18T04:52:58;99898.56;;;10.00;45.09
33845;BME280;20145;43.118;25.694;2023-02-18T04:55:24;99898.56;;;10.14;43.65
33845;BME280;20145;43.118;25.694;2023-02-18T04:57:49;99895.13;;;10.29;43.61
33845;BME280;20145;43.118;25.694;2023-02-18T05:00:17;99907.16;;;10.30;44.04
33845;BME280;20145;43.118;25.694;2023-02-18T05:02:44;99902.84;;;10.32;43.44
33845;BME280;20145;43.118;25.694;2023-02-18T05:05:11;99913.16;;;10.27;44.81
33845;BME280;20145;43.118;25.694;2023-02-18T05:07:37;99902.00;;;10.20;44.46
33845;BME280;20145;43.118;25.694;2023-02-18T05:10:04;99910.56;;;10.30;44.65
33845;BME280;20145;43.118;25.694;2023-02-18T05:12:30;99913.16;;;10.35;43.60
33845;BME280;20145;43.118;25.694;2023-02-18T05:14:56;99902.78;;;10.48;44.17
33845;BME280;20145;43.118;25.694;2023-02-18T05:17:22;99899.31;;;10.57;43.68
33845;BME280;20145;43.118;25.694;2023-02-18T05:19:47;99901.00;;;10.61;43.63
33845;BME280;20145;43.118;25.694;2023-02-18T05:22:13;99900.97;;;10.72;44.11
33845;BME280;20145;43.118;25.694;2023-02-18T05:24:39;99893.22;;;10.72;44.16
33845;BME280;20145;43.118;25.694;2023-02-18T05:27:04;99903.56;;;10.69;43.80
33845;BME280;20145;43.118;25.694;2023-02-18T05:29:30;99910.44;;;10.71;44.03
33845;BME280;20145;43.118;25.694;2023-02-18T05:31:56;99905.19;;;10.90;44.08
33845;BME280;20145;43.118;25.694;2023-02-18T05:34:22;99905.16;;;10.91;43.21
33845;BME280;20145;43.118;25.694;2023-02-18T05:36:47;99900.81;;;11.00;43.05
33845;BME280;20145;43.118;25.694;2023-02-18T05:39:13;99897.31;;;11.10;43.71
33845;BME280;20145;43.118;25.694;2023-02-18T05:41:38;99886.91;;;11.21;42.90
33845;BME280;20145;43.118;25.694;2023-02-18T05:44:04;99891.13;;;11.34;43.15
33845;BME280;20145;43.118;25.694;2023-02-18T05:46:48;99897.13;;;11.39;42.53
33845;BME280;20145;43.118;25.694;2023-02-18T05:49:14;99896.19;;;11.48;42.95
33845;BME280;20145;43.118;25.694;2023-02-18T05:51:39;99880.72;;;11.45;42.54
33845;BME280;20145;43.118;25.694;2023-02-18T05:54:05;99884.13;;;11.47;42.57
33845;BME280;20145;43.118;25.694;2023-02-18T05:56:30;99878.06;;;11.52;42.38
33845;BME280;20145;43.118;25.694;2023-02-18T05:58:56;99887.44;;;11.64;41.52
33845;BME280;20145;43.118;25.694;2023-02-18T06:01:22;99894.31;;;11.65;41.57
33845;BME280;20145;43.118;25.694;2023-02-18T06:03:47;99880.53;;;11.66;42.56
33845;BME280;20145;43.118;25.694;2023-02-18T06:06:13;99861.53;;;11.69;42.24
33845;BME280;20145;43.118;25.694;2023-02-18T06:08:38;99873.56;;;11.76;41.88
33845;BME280;20145;43.118;25.694;2023-02-18T06:11:04;99877.06;;;11.70;41.43
33845;BME280;20145;43.118;25.694;2023-02-18T06:13:29;99875.19;;;11.83;41.98
33845;BME280;20145;43.118;25.694;2023-02-18T06:15:55;99877.81;;;11.86;42.23
33845;BME280;20145;43.118;25.694;2023-02-18T06:18:21;99875.16;;;11.92;40.73
33845;BME280;20145;43.118;25.694;2023-02-18T06:20:47;99878.50;;;12.03;41.97
33845;BME280;20145;43.118;25.694;2023-02-18T06:23:14;99859.59;;;11.94;40.39
33845;BME280;20145;43.118;25.694;2023-02-18T06:25:40;99900.91;;;12.03;40.97
33845;BME280;20145;43.118;25.694;2023-02-18T06:28:06;99884.44;;;12.10;40.50
33845;BME280;20145;43.118;25.694;2023-02-18T06:30:31;99874.06;;;12.13;40.65
33845;BME280;20145;43.118;25.694;2023-02-18T06:32:57;99874.09;;;12.10;40.86
33845;BME280;20145;43.118;25.694;2023-02-18T06:35:23;99864.84;;;11.88;41.54
33845;BME280;20145;43.118;25.694;2023-02-18T06:37:48;99875.75;;;12.17;40.69
33845;BME280;20145;43.118;25.694;2023-02-18T06:40:14;99868.03;;;12.14;41.76
33845;BME280;20145;43.118;25.694;2023-02-18T06:42:39;99872.16;;;12.27;41.26
33845;BME280;20145;43.118;25.694;2023-02-18T06:45:05;99870.34;;;12.39;40.37
33845;BME280;20145;43.118;25.694;2023-02-18T06:47:32;99859.06;;;12.41;41.29
33845;BME280;20145;43.118;25.694;2023-02-18T06:49:57;99876.31;;;12.42;40.75
33845;BME280;20145;43.118;25.694;2023-02-18T06:52:23;99867.69;;;12.43;40.56
33845;BME280;20145;43.118;25.694;2023-02-18T06:54:49;99849.47;;;12.49;40.93
33845;BME280;20145;43.118;25.694;2023-02-18T06:57:14;99848.56;;;12.54;40.30
33845;BME280;20145;43.118;25.694;2023-02-18T06:59:40;99855.38;;;12.62;39.92
33845;BME280;20145;43.118;25.694;2023-02-18T07:02:06;99833.06;;;12.52;40.19
33845;BME280;20145;43.118;25.694;2023-02-18T07:04:31;99839.91;;;12.55;40.17
33845;BME280;20145;43.118;25.694;2023-02-18T07:06:57;99835.53;;;12.60;40.46
33845;BME280;20145;43.118;25.694;2023-02-18T07:09:22;99857.72;;;12.79;39.85
33845;BME280;20145;43.118;25.694;2023-02-18T07:11:48;99849.94;;;12.79;39.69
33845;BME280;20145;43.118;25.694;2023-02-18T07:14:13;99853.34;;;12.83;40.84
33845;BME280;20145;43.118;25.694;2023-02-18T07:16:39;99861.81;;;12.94;39.00
33845;BME280;20145;43.118;25.694;2023-02-18T07:19:04;99868.88;;;12.86;39.02
33845;BME280;20145;43.118;25.694;2023-02-18T07:21:30;99864.53;;;12.86;40.86
33845;BME280;20145;43.118;25.694;2023-02-18T07:23:55;99859.25;;;12.92;39.04
33845;BME280;20145;43.118;25.694;2023-02-18T07:26:21;99869.56;;;12.95;39.98
33845;BME280;20145;43.118;25.694;2023-02-18T07:28:47;99866.13;;;12.95;38.90
33845;BME280;20145;43.118;25.694;2023-02-18T07:31:12;99871.03;;;13.13;39.07
33845;BME280;20145;43.118;25.694;2023-02-18T07:33:38;99876.59;;;13.46;38.38
33845;BME280;20145;43.118;25.694;2023-02-18T07:36:03;99867.44;;;13.76;39.33
33845;BME280;20145;43.118;25.694;2023-02-18T07:38:29;99872.84;;;14.14;37.41
33845;BME280;20145;43.118;25.694;2023-02-18T07:40:56;99860.19;;;14.40;36.92
33845;BME280;20145;43.118;25.694;2023-02-18T07:43:22;99864.81;;;14.69;36.38
33845;BME280;20145;43.118;25.694;2023-02-18T07:45:47;99862.00;;;14.79;36.46
33845;BME280;20145;43.118;25.694;2023-02-18T07:48:13;99869.19;;;14.67;36.88
33845;BME280;20145;43.118;25.694;2023-02-18T07:50:41;99869.09;;;14.72;35.92
33845;BME280;20145;43.118;25.694;2023-02-18T07:53:08;99868.94;;;14.78;36.70
33845;BME280;20145;43.118;25.694;2023-02-18T07:55:35;99875.00;;;14.79;37.07
33845;BME280;20145;43.118;25.694;2023-02-18T08:00:43;99878.41;;;15.20;36.77
33845;BME280;20145;43.118;25.694;2023-02-18T08:03:09;99873.50;;;15.43;35.98
33845;BME280;20145;43.118;25.694;2023-02-18T08:05:35;99873.50;;;15.79;35.64
33845;BME280;20145;43.118;25.694;2023-02-18T08:08:01;99883.38;;;15.99;35.13
33845;BME280;20145;43.118;25.694;2023-02-18T08:10:26;99877.31;;;15.98;33.95
33845;BME280;20145;43.118;25.694;2023-02-18T08:12:52;99876.19;;;16.09;35.24
33845;BME280;20145;43.118;25.694;2023-02-18T08:15:17;99872.41;;;16.20;34.88
33845;BME280;20145;43.118;25.694;2023-02-18T08:17:43;99876.63;;;16.24;35.01
33845;BME280;20145;43.118;25.694;2023-02-18T08:20:09;99864.25;;;16.33;34.37
33845;BME280;20145;43.118;25.694;2023-02-18T08:22:35;99867.97;;;16.54;33.79
33845;BME280;20145;43.118;25.694;2023-02-18T08:25:00;99863.22;;;16.68;34.30
33845;BME280;20145;43.118;25.694;2023-02-18T08:27:26;99866.38;;;16.79;34.16
33845;BME280;20145;43.118;25.694;2023-02-18T08:29:51;99862.47;;;16.64;33.50
33845;BME280;20145;43.118;25.694;2023-02-18T08:32:17;99859.81;;;16.66;33.69
33845;BME280;20145;43.118;25.694;2023-02-18T08:34:43;99855.19;;;16.77;34.07
33845;BME280;20145;43.118;25.694;2023-02-18T08:37:08;99856.66;;;16.86;34.22
33845;BME280;20145;43.118;25.694;2023-02-18T08:39:35;99853.00;;;16.91;34.00
33845;BME280;20145;43.118;25.694;2023-02-18T08:42:00;99852.50;;;17.07;34.04
33845;BME280;20145;43.118;25.694;2023-02-18T08:44:26;99855.22;;;17.04;33.58
33845;BME280;20145;43.118;25.694;2023-02-18T08:46:52;99858.22;;;16.91;33.61
33845;BME280;20145;43.118;25.694;2023-02-18T08:49:18;99867.16;;;17.11;33.83
33845;BME280;20145;43.118;25.694;2023-02-18T08:51:49;99860.28;;;17.08;33.85
33845;BME280;20145;43.118;25.694;2023-02-18T08:54:15;99865.53;;;17.07;34.09
33845;BME280;20145;43.118;25.694;2023-02-18T08:56:41;99856.59;;;17.15;33.61
33845;BME280;20145;43.118;25.694;2023-02-18T08:59:06;99871.94;;;17.51;33.43
33845;BME280;20145;43.118;25.694;2023-02-18T09:01:32;99872.81;;;17.52;34.14
33845;BME280;20145;43.118;25.694;2023-02-18T09:04:16;99880.91;;;17.43;35.60
33845;BME280;20145;43.118;25.694;2023-02-18T09:06:42;99877.47;;;17.15;37.01
33845;BME280;20145;43.118;25.694;2023-02-18T09:09:08;99860.31;;;16.79;37.27
33845;BME280;20145;43.118;25.694;2023-02-18T09:11:35;99852.16;;;16.60;38.04
33845;BME280;20145;43.118;25.694;2023-02-18T09:14:01;99867.28;;;16.78;37.34
33845;BME280;20145;43.118;25.694;2023-02-18T09:16:27;99876.47;;;16.91;38.08
33845;BME280;20145;43.118;25.694;2023-02-18T09:18:54;99868.44;;;16.98;37.40
33845;BME280;20145;43.118;25.694;2023-02-18T09:21:21;99861.22;;;17.06;35.66
33845;BME280;20145;43.118;25.694;2023-02-18T09:23:48;99867.19;;;17.09;35.64
33845;BME280;20145;43.118;25.694;2023-02-18T09:26:16;99867.38;;;17.05;36.45
33845;BME280;20145;43.118;25.694;2023-02-18T09:28:42;99865.78;;;17.27;35.84
33845;BME280;20145;43.118;25.694;2023-02-18T09:31:10;99867.09;;;17.41;35.57
33845;BME280;20145;43.118;25.694;2023-02-18T09:33:39;99870.91;;;17.30;35.63
33845;BME280;20145;43.118;25.694;2023-02-18T09:36:06;99859.25;;;17.14;35.90
33845;BME280;20145;43.118;25.694;2023-02-18T09:38:32;99878.75;;;17.29;35.99
33845;BME280;20145;43.118;25.694;2023-02-18T09:40:59;99872.38;;;17.37;35.40
33845;BME280;20145;43.118;25.694;2023-02-18T09:43:53;99865.25;;;17.43;35.63
33845;BME280;20145;43.118;25.694;2023-02-18T09:46:42;99855.94;;;17.35;35.51
33845;BME280;20145;43.118;25.694;2023-02-18T09:49:16;99869.09;;;17.32;36.21
33845;BME280;20145;43.118;25.694;2023-02-18T09:51:43;99876.00;;;17.33;35.83
33845;BME280;20145;43.118;25.694;2023-02-18T09:54:15;99870.63;;;17.11;36.13
33845;BME280;20145;43.118;25.694;2023-02-18T09:56:42;99875.63;;;17.17;35.74
33845;BME280;20145;43.118;25.694;2023-02-18T09:59:20;99877.28;;;17.20;36.00
33845;BME280;20145;43.118;25.694;2023-02-18T10:01:50;99858.50;;;17.10;35.51
33845;BME280;20145;43.118;25.694;2023-02-18T10:04:20;99872.31;;;17.12;35.66
33845;BME280;20145;43.118;25.694;2023-02-18T10:06:50;99865.63;;;17.04;35.42
33845;BME280;20145;43.118;25.694;2023-02-18T10:09:22;99856.50;;;16.90;36.24
33845;BME280;20145;43.118;25.694;2023-02-18T10:11:54;99861.22;;;17.06;36.49
33845;BME280;20145;43.118;25.694;2023-02-18T10:14:20;99854.22;;;17.08;36.16
33845;BME280;20145;43.118;25.694;2023-02-18T10:16:48;99855.31;;;17.01;35.66
33845;BME280;20145;43.118;25.694;2023-02-18T10:19:34;99838.09;;;16.95;36.50
33845;BME280;20145;43.118;25.694;2023-02-18T10:22:03;99837.47;;;17.15;36.35
33845;BME280;20145;43.118;25.694;2023-02-18T10:24:51;99832.97;;;17.20;36.46
33845;BME280;20145;43.118;25.694;2023-02-18T10:27:30;99830.31;;;17.22;36.43
33845;BME280;20145;43.118;25.694;2023-02-18T10:32:46;99826.31;;;17.38;36.28
33845;BME280;20145;43.118;25.694;2023-02-18T10:38:06;99830.59;;;17.66;35.94
33845;BME280;20145;43.118;25.694;2023-02-18T10:43:49;99817.09;;;17.79;36.11
33845;BME280;20145;43.118;25.694;2023-02-18T10:46:28;99812.00;;;18.00;35.53
33845;BME280;20145;43.118;25.694;2023-02-18T10:49:14;99805.03;;;18.00;35.39
33845;BME280;20145;43.118;25.694;2023-02-18T10:51:50;99804.72;;;18.10;35.34
33845;BME280;20145;43.118;25.694;2023-02-18T10:54:25;99802.13;;;18.32;35.02
33845;BME280;20145;43.118;25.694;2023-02-18T10:56:58;99797.50;;;18.16;35.61
33845;BME280;20145;43.118;25.694;2023-02-18T10:59:26;99796.56;;;17.69;35.83
33845;BME280;20145;43.118;25.694;2023-02-18T11:02:11;99778.09;;;17.73;35.29
33845;BME280;20145;43.118;25.694;2023-02-18T11:04:40;99775.34;;;17.53;36.33
33845;BME280;20145;43.118;25.694;2023-02-18T11:07:21;99793.84;;;17.72;35.83
33845;BME280;20145;43.118;25.694;2023-02-18T11:09:53;99774.88;;;17.67;35.37
33845;BME280;20145;43.118;25.694;2023-02-18T11:17:33;99774.53;;;17.51;35.54
33845;BME280;20145;43.118;25.694;2023-02-18T11:20:01;99755.66;;;17.19;35.90
33845;BME280;20145;43.118;25.694;2023-02-18T11:22:32;99747.13;;;17.39;35.76
33845;BME280;20145;43.118;25.694;2023-02-18T11:25:01;99751.34;;;17.43;35.21
33845;BME280;20145;43.118;25.694;2023-02-18T11:27:45;99757.34;;;17.45;35.73
33845;BME280;20145;43.118;25.694;2023-02-18T11:30:25;99756.50;;;17.70;35.91
33845;BME280;20145;43.118;25.694;2023-02-18T11:32:58;99749.75;;;17.39;36.27
33845;BME280;20145;43.118;25.694;2023-02-18T11:35:27;99759.59;;;17.31;37.68
33845;BME280;20145;43.118;25.694;2023-02-18T11:37:56;99760.53;;;17.28;37.93
33845;BME280;20145;43.118;25.694;2023-02-18T11:40:32;99771.72;;;17.32;38.32
33845;BME280;20145;43.118;25.694;2023-02-18T11:43:09;99761.09;;;17.38;39.81
33845;BME280;20145;43.118;25.694;2023-02-18T11:45:36;99758.97;;;17.49;39.90
33845;BME280;20145;43.118;25.694;2023-02-18T11:48:22;99761.56;;;17.49;39.83
33845;BME280;20145;43.118;25.694;2023-02-18T11:50:52;99763.81;;;17.60;40.75
33845;BME280;20145;43.118;25.694;2023-02-18T11:53:33;99740.47;;;17.55;40.41
33845;BME280;20145;43.118;25.694;2023-02-18T11:56:03;99756.50;;;17.70;40.69
33845;BME280;20145;43.118;25.694;2023-02-18T11:58:37;99759.84;;;17.73;40.54
33845;BME280;20145;43.118;25.694;2023-02-18T12:01:05;99747.56;;;17.52;41.34
33845;BME280;20145;43.118;25.694;2023-02-18T12:06:19;99748.47;;;17.51;40.57
33845;BME280;20145;43.118;25.694;2023-02-18T12:08:50;99752.81;;;17.50;40.39
33845;BME280;20145;43.118;25.694;2023-02-18T12:11:28;99738.72;;;17.56;41.30
33845;BME280;20145;43.118;25.694;2023-02-18T12:13:56;99724.44;;;17.66;40.24
33845;BME280;20145;43.118;25.694;2023-02-18T12:22:25;99719.63;;;17.30;42.10
33845;BME280;20145;43.118;25.694;2023-02-18T12:27:45;99717.38;;;17.45;43.37
33845;BME280;20145;43.118;25.694;2023-02-18T12:30:44;99723.81;;;17.34;43.50
33845;BME280;20145;43.118;25.694;2023-02-18T12:33:18;99730.63;;;17.38;43.94
33845;BME280;20145;43.118;25.694;2023-02-18T12:49:14;99699.88;;;17.72;44.59
33845;BME280;20145;43.118;25.694;2023-02-18T13:12:11;99694.50;;;17.51;46.25
33845;BME280;20145;43.118;25.694;2023-02-18T13:14:52;99698.72;;;17.55;46.13
33845;BME280;20145;43.118;25.694;2023-02-18T13:17:23;99679.03;;;17.47;46.67
33845;BME280;20145;43.118;25.694;2023-02-18T13:19:59;99677.63;;;17.61;46.13
33845;BME280;20145;43.118;25.694;2023-02-18T13:22:28;99657.72;;;17.59;47.06
33845;BME280;20145;43.118;25.694;2023-02-18T13:24:56;99674.16;;;17.61;46.17
33845;BME280;20145;43.118;25.694;2023-02-18T13:27:47;99677.50;;;17.65;46.78
33845;BME280;20145;43.118;25.694;2023-02-18T13:35:21;99677.69;;;17.60;46.60
33845;BME280;20145;43.118;25.694;2023-02-18T13:40:39;99675.59;;;17.46;47.03
33845;BME280;20145;43.118;25.694;2023-02-18T13:46:12;99675.19;;;17.57;46.88
33845;BME280;20145;43.118;25.694;2023-02-18T13:51:36;99679.16;;;17.44;46.01
33845;BME280;20145;43.118;25.694;2023-02-18T13:56:44;99678.88;;;17.51;46.90
33845;BME280;20145;43.118;25.694;2023-02-18T13:59:23;99680.47;;;17.55;46.29
33845;BME280;20145;43.118;25.694;2023-02-18T14:01:51;99681.28;;;17.57;45.93
33845;BME280;20145;43.118;25.694;2023-02-18T14:04:48;99658.91;;;17.50;46.13
33845;BME280;20145;43.118;25.694;2023-02-18T14:17:47;99662.00;;;17.36;46.08
33845;BME280;20145;43.118;25.694;2023-02-18T14:20:28;99657.97;;;17.28;46.70
33845;BME280;20145;43.118;25.694;2023-02-18T14:22:56;99660.81;;;17.22;46.90
33845;BME280;20145;43.118;25.694;2023-02-18T14:25:33;99670.56;;;17.40;46.49
33845;BME280;20145;43.118;25.694;2023-02-18T14:28:02;99664.03;;;17.28;46.30
33845;BME280;20145;43.118;25.694;2023-02-18T14:30:37;99662.34;;;17.27;46.72
33845;BME280;20145;43.118;25.694;2023-02-18T14:33:04;99659.00;;;17.24;46.94
33845;BME280;20145;43.118;25.694;2023-02-18T14:41:38;99666.63;;;17.05;47.15
33845;BME280;20145;43.118;25.694;2023-02-18T14:52:08;99657.91;;;16.79;46.59
33845;BME280;20145;43.118;25.694;2023-02-18T14:54:38;99663.47;;;16.68;47.41
33845;BME280;20145;43.118;25.694;2023-02-18T14:57:13;99657.44;;;16.66;46.89
33845;BME280;20145;43.118;25.694;2023-02-18T14:59:41;99663.50;;;16.67;47.37
33845;BME280;20145;43.118;25.694;2023-02-18T15:02:34;99661.00;;;16.64;46.75
33845;BME280;20145;43.118;25.694;2023-02-18T15:05:21;99662.16;;;16.55;48.04
33845;BME280;20145;43.118;25.694;2023-02-18T15:10:20;99657.06;;;16.52;47.95
33845;BME280;20145;43.118;25.694;2023-02-18T15:12:46;99655.72;;;16.39;47.37
33845;BME280;20145;43.118;25.694;2023-02-18T15:15:14;99660.03;;;16.40;47.07
33845;BME280;20145;43.118;25.694;2023-02-18T15:17:48;99664.44;;;16.38;47.08
33845;BME280;20145;43.118;25.694;2023-02-18T15:20:15;99689.69;;;16.36;46.98
33845;BME280;20145;43.118;25.694;2023-02-18T15:22:41;99675.34;;;16.22;48.18
33845;BME280;20145;43.118;25.694;2023-02-18T15:25:11;99674.59;;;16.19;48.07